Terminal Aerodrome Forecast
Issued by NWS

Home | Current Version | Previous Version | Text Only | Print | Product List | Glossary On
Versions: 1 2 3 4 5 6 7 8 9 10 11 12 13 14 15 16 17 18 19
000
FTUS41 KOKX 272300
TAFSWF
TAF
KSWF 272325Z 2800/2906 VRB03KT P6SM BKN250
     FM280300 VRB03KT P6SM BKN100 BKN250
     FM281000 VRB04KT 5SM -SHRA BR BKN025 OVC040
     FM281800 28008KT 6SM -SHRA BR SCT025 BKN040
     FM282100 31008KT P6SM SCT025 BKN040
     FM290000 32008KT P6SM SCT040 SCT100
      AMD NOT SKED=

USA.gov is the U.S. government's official web portal to all federal, state and local government web resources and services.